Time;durP1;ratioP1;P1;durP2;ratioP2;P2;SDS_P1;SDS_P2;PMS_P1;PMS_P2;Temp;Humidity;BMP_temperature;BMP_pressure;BME280_temperature;BME280_humidity;BME280_pressure;Samples;Min_cycle;Max_cycle;Signal;HPM_P1;HPM_P2
2024/01/25 00:06:59;;;;;;;;;;;9.30;99.90;;;;;;20848569;28;19987;-79
2024/01/25 00:16:59;;;;;;;;;;;9.40;99.90;;;;;;20844891;28;19960;-79
2024/01/25 00:27:00;;;;;;;;;;;9.50;99.90;;;;;;20851383;28;19943;-78
2024/01/25 00:37:01;;;;;;;;;;;9.50;99.90;;;;;;20845212;28;19948;-79
2024/01/25 00:47:01;;;;;;;;;;;9.40;99.90;;;;;;20847143;28;19964;-79
2024/01/25 00:57:02;;;;;;;;;;;9.50;99.90;;;;;;20845863;28;19936;-79
2024/01/25 01:07:03;;;;;;;;;;;9.50;99.90;;;;;;20844630;28;19917;-79
2024/01/25 01:17:04;;;;;;;;;;;9.50;99.90;;;;;;20831398;28;19917;-79
2024/01/25 01:27:04;;;;;;;;;;;9.40;99.90;;;;;;20844686;28;19920;-78
2024/01/25 01:37:05;;;;;;;;;;;9.40;99.90;;;;;;20833118;28;20331;-78
2024/01/25 01:47:06;;;;;;;;;;;9.30;99.90;;;;;;20847258;28;19997;-79
2024/01/25 01:57:07;;;;;;;;;;;9.40;99.90;;;;;;20839850;28;20280;-79
2024/01/25 02:07:08;;;;;;;;;;;9.30;99.90;;;;;;20848043;28;20308;-78
2024/01/25 02:17:09;;;;;;;;;;;9.40;99.90;;;;;;20864158;28;19920;-78
2024/01/25 02:27:09;;;;;;;;;;;9.40;99.90;;;;;;20862446;28;19917;-79
2024/01/25 02:37:12;;;;;;;;;;;9.30;99.90;;;;;;20860509;28;20467;-78
2024/01/25 02:47:15;;;;;;;;;;;9.20;99.90;;;;;;20863457;28;19931;-80
2024/01/25 02:57:15;;;;;;;;;;;9.20;99.90;;;;;;20860975;28;19917;-79
2024/01/25 03:07:16;;;;;;;;;;;9.20;99.90;;;;;;20863916;28;19924;-79
2024/01/25 03:17:17;;;;;;;;;;;9.20;99.90;;;;;;20860116;28;19958;-79
2024/01/25 03:27:17;;;;;;;;;;;9.20;99.90;;;;;;20859848;28;19952;-80
2024/01/25 03:37:18;;;;;;;;;;;9.20;99.90;;;;;;20860649;28;19917;-79
2024/01/25 03:47:18;;;;;;;;;;;9.10;99.90;;;;;;20843104;28;19916;-79
2024/01/25 03:57:19;;;;;;;;;;;9.20;99.90;;;;;;20859949;28;20012;-80
2024/01/25 04:07:20;;;;;;;;;;;9.10;99.90;;;;;;20841280;28;19917;-79
2024/01/25 04:17:20;;;;;;;;;;;9.20;99.90;;;;;;20860770;28;19913;-79
2024/01/25 04:27:21;;;;;;;;;;;9.20;99.90;;;;;;20836277;28;19940;-79
2024/01/25 04:37:22;;;;;;;;;;;9.20;99.90;;;;;;20852526;28;19917;-78
2024/01/25 04:47:23;;;;;;;;;;;9.20;99.90;;;;;;20860091;28;19921;-79
2024/01/25 04:57:23;;;;;;;;;;;9.10;99.90;;;;;;20824330;28;20013;-79
2024/01/25 05:07:24;;;;;;;;;;;9.20;99.90;;;;;;20826697;28;19921;-79
2024/01/25 05:17:25;;;;;;;;;;;9.20;99.90;;;;;;20842367;28;19917;-79
2024/01/25 05:27:26;;;;;;;;;;;9.20;99.90;;;;;;20834440;28;19917;-78
2024/01/25 05:37:26;;;;;;;;;;;9.40;99.90;;;;;;20853128;28;20918;-80
2024/01/25 05:47:27;;;;;;;;;;;9.40;99.90;;;;;;20849229;28;19925;-79
2024/01/25 05:57:28;;;;;;;;;;;9.30;99.90;;;;;;20855257;28;19913;-80
2024/01/25 06:07:28;;;;;;;;;;;9.30;99.90;;;;;;20832839;28;19917;-79
2024/01/25 06:17:30;;;;;;;;;;;9.30;99.90;;;;;;20854101;28;19952;-79
2024/01/25 06:27:31;;;;;;;;;;;9.30;99.90;;;;;;20835911;28;19927;-79
2024/01/25 06:37:31;;;;;;;;;;;9.30;99.90;;;;;;20854810;28;19917;-79
2024/01/25 06:47:32;;;;;;;;;;;9.30;99.90;;;;;;20854300;28;19924;-79
2024/01/25 06:57:32;;;;;;;;;;;9.40;99.90;;;;;;20845277;28;19956;-80
2024/01/25 07:07:33;;;;;;;;;;;9.30;99.90;;;;;;20872673;28;20018;-79
2024/01/25 07:17:34;;;;;;;;;;;9.30;99.90;;;;;;20851586;28;20440;-78
2024/01/25 07:27:34;;;;;;;;;;;9.30;99.90;;;;;;20863928;28;19916;-79
2024/01/25 07:37:35;;;;;;;;;;;9.30;99.90;;;;;;20867600;28;20047;-79
2024/01/25 07:47:36;;;;;;;;;;;9.30;99.90;;;;;;20863909;28;19932;-80
2024/01/25 07:57:36;;;;;;;;;;;9.30;99.90;;;;;;20862100;28;19913;-80
2024/01/25 08:07:37;;;;;;;;;;;9.30;99.90;;;;;;20835284;28;19917;-79
2024/01/25 08:17:38;;;;;;;;;;;9.30;99.90;;;;;;20869588;28;19936;-80
2024/01/25 08:27:39;;;;;;;;;;;9.30;99.90;;;;;;20851787;28;19917;-79
2024/01/25 08:37:39;;;;;;;;;;;9.30;99.90;;;;;;20868718;28;19918;-79
2024/01/25 08:47:40;;;;;;;;;;;9.30;99.90;;;;;;20852268;28;20280;-80
2024/01/25 08:57:41;;;;;;;;;;;9.40;99.90;;;;;;20853518;28;19913;-79
2024/01/25 09:07:41;;;;;;;;;;;9.40;99.90;;;;;;20847203;28;19940;-79
2024/01/25 09:17:43;;;;;;;;;;;9.40;99.90;;;;;;20847835;28;19983;-79
2024/01/25 09:27:44;;;;;;;;;;;9.60;99.90;;;;;;20824483;28;19921;-80
2024/01/25 09:37:45;;;;;;;;;;;9.80;99.90;;;;;;20839449;28;19917;-79
2024/01/25 09:47:48;;;;;;;;;;;10.00;99.90;;;;;;20843756;28;20006;-81
2024/01/25 09:57:52;;;;;;;;;;;10.10;99.90;;;;;;20845255;28;19941;-80
2024/01/25 10:07:53;;;;;;;;;;;10.10;99.90;;;;;;20860092;28;20364;-80
2024/01/25 10:17:54;;;;;;;;;;;10.00;99.90;;;;;;20867988;28;19936;-78
2024/01/25 10:27:54;;;;;;;;;;;10.00;99.90;;;;;;20859405;28;19920;-79
2024/01/25 10:37:55;;;;;;;;;;;10.00;99.90;;;;;;20888285;28;19924;-79
2024/01/25 10:47:56;;;;;;;;;;;10.00;99.90;;;;;;20888317;28;19956;-79
2024/01/25 10:57:56;;;;;;;;;;;10.00;99.90;;;;;;20883965;28;19917;-78
2024/01/25 11:07:58;;;;;;;;;;;10.10;99.90;;;;;;20871067;28;19917;-78
2024/01/25 11:17:59;;;;;;;;;;;10.30;99.90;;;;;;20879101;28;20036;-78
2024/01/25 11:28:00;;;;;;;;;;;10.20;99.90;;;;;;20897833;28;19953;-78
2024/01/25 11:38:01;;;;;;;;;;;10.50;99.90;;;;;;20877956;28;19924;-78
2024/01/25 11:48:02;;;;;;;;;;;10.80;99.90;;;;;;20873462;28;20391;-79
2024/01/25 11:58:03;;;;;;;;;;;11.20;99.90;;;;;;20880949;28;19913;-79
2024/01/25 12:08:08;;;;;;;;;;;11.20;99.90;;;;;;20879056;28;19923;-79
2024/01/25 12:18:11;;;;;;;;;;;11.20;99.90;;;;;;20880691;28;19951;-79
2024/01/25 12:28:12;;;;;;;;;;;11.30;99.90;;;;;;20917409;28;19917;-77
2024/01/25 12:38:13;;;;;;;;;;;12.00;99.90;;;;;;20923923;28;19924;-79
2024/01/25 12:48:13;;;;;;;;;;;12.10;99.90;;;;;;20910753;28;19940;-79
2024/01/25 12:58:14;;;;;;;;;;;12.50;99.90;;;;;;20907883;28;19944;-79
2024/01/25 13:08:18;;;;;;;;;;;12.60;99.90;;;;;;20870413;28;19913;-79
2024/01/25 13:18:19;;;;;;;;;;;12.20;99.90;;;;;;20825836;28;19924;-78
2024/01/25 13:28:19;;;;;;;;;;;12.60;99.90;;;;;;20842713;28;20595;-78
2024/01/25 13:38:20;;;;;;;;;;;12.50;99.90;;;;;;20823419;28;19924;-78
2024/01/25 13:48:21;;;;;;;;;;;12.00;99.90;;;;;;20828698;28;20333;-77
2024/01/25 13:58:21;;;;;;;;;;;12.00;99.90;;;;;;20833689;28;19963;-79
2024/01/25 14:08:22;;;;;;;;;;;11.90;99.90;;;;;;20850825;28;19964;-80
2024/01/25 14:18:23;;;;;;;;;;;11.80;99.90;;;;;;20883010;28;19917;-78
2024/01/25 14:28:23;;;;;;;;;;;12.30;99.90;;;;;;20848946;28;20008;-79
2024/01/25 14:38:24;;;;;;;;;;;12.20;99.90;;;;;;20838637;28;20385;-79
2024/01/25 14:48:25;;;;;;;;;;;11.90;99.90;;;;;;20861407;28;19944;-80
2024/01/25 14:58:25;;;;;;;;;;;11.70;99.90;;;;;;20863405;28;19917;-78
2024/01/25 15:08:26;;;;;;;;;;;11.70;99.90;;;;;;20850331;28;19917;-78
2024/01/25 15:18:26;;;;;;;;;;;11.70;99.90;;;;;;20864934;28;19917;-79
2024/01/25 15:28:27;;;;;;;;;;;11.60;99.90;;;;;;20861858;28;19913;-80
2024/01/25 15:38:28;;;;;;;;;;;11.40;99.90;;;;;;20855325;28;19924;-79
2024/01/25 15:48:28;;;;;;;;;;;11.30;99.90;;;;;;20865174;28;20311;-79
2024/01/25 15:58:29;;;;;;;;;;;11.20;99.90;;;;;;20855768;28;19924;-79
2024/01/25 16:08:30;;;;;;;;;;;11.10;99.90;;;;;;20852838;28;19956;-79
2024/01/25 16:18:31;;;;;;;;;;;11.10;99.90;;;;;;20858814;28;19925;-78
2024/01/25 16:28:32;;;;;;;;;;;11.00;99.90;;;;;;20855115;28;20384;-80
2024/01/25 16:38:32;;;;;;;;;;;10.70;99.90;;;;;;20851884;28;20054;-79
2024/01/25 16:48:35;;;;;;;;;;;10.70;99.90;;;;;;20836313;28;21389;-79
2024/01/25 16:58:35;;;;;;;;;;;10.30;99.90;;;;;;20836881;28;20372;-80
2024/01/25 17:08:36;;;;;;;;;;;10.10;99.90;;;;;;20854990;28;19936;-80
2024/01/25 17:18:37;;;;;;;;;;;9.80;99.90;;;;;;20852317;28;19917;-80
2024/01/25 17:28:37;;;;;;;;;;;9.70;99.90;;;;;;20851844;28;19913;-79
2024/01/25 17:38:39;;;;;;;;;;;9.50;99.90;;;;;;20827528;28;19928;-79
2024/01/25 17:48:40;;;;;;;;;;;9.70;99.90;;;;;;20839884;28;19967;-79
2024/01/25 17:58:41;;;;;;;;;;;9.70;99.90;;;;;;20823798;28;19921;-78
2024/01/25 18:08:42;;;;;;;;;;;9.80;99.90;;;;;;20833290;28;19921;-78
2024/01/25 18:18:42;;;;;;;;;;;9.80;99.90;;;;;;20830629;28;19916;-78
2024/01/25 18:28:43;;;;;;;;;;;9.70;99.90;;;;;;20831413;28;19919;-78
2024/01/25 18:38:44;;;;;;;;;;;9.70;99.90;;;;;;20829511;28;19917;-78
2024/01/25 18:48:44;;;;;;;;;;;9.50;99.90;;;;;;20828046;28;19928;-80
2024/01/25 18:58:47;;;;;;;;;;;9.60;99.90;;;;;;20864666;28;19966;-79
2024/01/25 19:08:48;;;;;;;;;;;9.70;99.90;;;;;;20850590;28;20391;-80
2024/01/25 19:18:52;;;;;;;;;;;9.60;99.90;;;;;;20845824;28;19917;-80
2024/01/25 19:28:52;;;;;;;;;;;9.60;99.90;;;;;;20859437;28;19917;-79
2024/01/25 19:38:53;;;;;;;;;;;9.70;99.90;;;;;;20859358;28;19928;-80
2024/01/25 19:48:54;;;;;;;;;;;9.60;99.90;;;;;;20848256;28;19988;-79
2024/01/25 19:58:54;;;;;;;;;;;9.60;99.90;;;;;;20844256;28;19924;-79
2024/01/25 20:08:55;;;;;;;;;;;9.70;99.90;;;;;;20855972;28;19917;-79
2024/01/25 20:18:56;;;;;;;;;;;9.70;99.90;;;;;;20838296;28;19917;-80
2024/01/25 20:28:57;;;;;;;;;;;9.60;99.90;;;;;;20852521;28;19913;-78
2024/01/25 20:38:57;;;;;;;;;;;9.70;99.90;;;;;;20821689;28;19917;-79
2024/01/25 20:48:58;;;;;;;;;;;9.70;99.90;;;;;;20854488;28;19913;-80
2024/01/25 20:58:59;;;;;;;;;;;9.60;99.90;;;;;;20855901;28;20099;-80
2024/01/25 21:08:59;;;;;;;;;;;9.60;99.90;;;;;;20859786;28;19913;-79
2024/01/25 21:19:00;;;;;;;;;;;9.60;99.90;;;;;;20836646;28;19925;-79
2024/01/25 21:29:01;;;;;;;;;;;9.50;99.90;;;;;;20838991;28;20371;-79
2024/01/25 21:39:01;;;;;;;;;;;9.40;99.90;;;;;;20851641;28;19920;-79
2024/01/25 21:49:02;;;;;;;;;;;9.40;99.90;;;;;;20853123;28;19945;-79
2024/01/25 21:59:03;;;;;;;;;;;9.30;99.90;;;;;;20851644;28;19917;-79
2024/01/25 22:09:03;;;;;;;;;;;9.20;99.90;;;;;;20842162;28;21177;-80
2024/01/25 22:19:04;;;;;;;;;;;9.20;99.90;;;;;;20849579;28;19926;-79
2024/01/25 22:29:04;;;;;;;;;;;9.10;99.90;;;;;;20859740;28;19914;-80
2024/01/25 22:39:05;;;;;;;;;;;9.10;99.90;;;;;;20884080;28;19921;-80
2024/01/25 22:49:06;;;;;;;;;;;9.10;99.90;;;;;;20885085;28;20380;-80
2024/01/25 22:59:07;;;;;;;;;;;9.10;99.90;;;;;;20895209;28;20363;-80
2024/01/25 23:09:08;;;;;;;;;;;9.00;99.90;;;;;;20888159;28;19914;-80
2024/01/25 23:19:09;;;;;;;;;;;8.90;99.90;;;;;;20897825;28;19917;-80
2024/01/25 23:29:09;;;;;;;;;;;8.90;99.90;;;;;;20869103;28;19920;-80
2024/01/25 23:39:10;;;;;;;;;;;8.80;99.90;;;;;;20888251;28;19924;-80
2024/01/25 23:49:12;;;;;;;;;;;8.80;99.90;;;;;;20894155;28;19939;-81
2024/01/25 23:59:13;;;;;;;;;;;8.80;99.90;;;;;;20854770;28;19917;-79
